Time;durP1;ratioP1;P1;durP2;ratioP2;P2;SDS_P1;SDS_P2;PMS_P1;PMS_P2;Temp;Humidity;BMP_temperature;BMP_pressure;BME280_temperature;BME280_humidity;BME280_pressure;Samples;Min_cycle;Max_cycle;Signal;HPM_P1;HPM_P2
2023/09/02 00:00:01;;;;;;;0.17;0.17;;;;;;;;;;6159432;23;20354;-89
2023/09/02 00:02:27;;;;;;;0.10;0.10;;;;;;;;;;6183972;23;20017;-90
2023/09/02 00:04:53;;;;;;;0.10;0.10;;;;;;;;;;6159236;23;20059;-89
2023/09/02 00:07:19;;;;;;;0.10;0.10;;;;;;;;;;6159301;23;20525;-89
2023/09/02 00:09:45;;;;;;;0.10;0.10;;;;;;;;;;6186088;23;20028;-89
2023/09/02 00:12:11;;;;;;;0.10;0.10;;;;;;;;;;6159383;23;20037;-89
2023/09/02 00:14:37;;;;;;;0.10;0.10;;;;;;;;;;6183950;23;20017;-89
2023/09/02 00:17:03;;;;;;;0.10;0.10;;;;;;;;;;6159246;23;20020;-89
2023/09/02 00:19:29;;;;;;;0.10;0.10;;;;;;;;;;6134817;23;20017;-89
2023/09/02 00:21:56;;;;;;;0.10;0.10;;;;;;;;;;6134635;23;20017;-89
2023/09/02 00:24:22;;;;;;;0.10;0.10;;;;;;;;;;6134413;23;20013;-90
2023/09/02 00:26:48;;;;;;;0.10;0.10;;;;;;;;;;6159494;23;20016;-90
2023/09/02 00:29:14;;;;;;;0.15;0.15;;;;;;;;;;6134555;23;20009;-89
2023/09/02 00:31:40;;;;;;;0.10;0.10;;;;;;;;;;6159155;23;20020;-87
2023/09/02 00:34:06;;;;;;;0.10;0.10;;;;;;;;;;6183663;23;20095;-88
2023/09/02 00:36:32;;;;;;;0.10;0.10;;;;;;;;;;6159117;23;20017;-88
2023/09/02 00:38:59;;;;;;;0.10;0.10;;;;;;;;;;6183632;23;20469;-88
2023/09/02 00:41:32;;;;;;;0.10;0.10;;;;;;;;;;6134689;23;20442;-88
2023/09/02 00:43:58;;;;;;;0.10;0.10;;;;;;;;;;6134173;23;20020;-88
2023/09/02 00:46:24;;;;;;;0.10;0.10;;;;;;;;;;6134466;23;20009;-89
2023/09/02 00:48:50;;;;;;;0.10;0.10;;;;;;;;;;6159166;23;20434;-88
2023/09/02 00:51:16;;;;;;;0.10;0.10;;;;;;;;;;6158973;23;20020;-88
2023/09/02 00:53:44;;;;;;;0.13;0.13;;;;;;;;;;6134342;23;20350;-88
2023/09/02 00:56:10;;;;;;;0.10;0.10;;;;;;;;;;6134669;23;20338;-88
2023/09/02 00:58:36;;;;;;;0.10;0.10;;;;;;;;;;6159309;23;20013;-88
2023/09/02 01:01:03;;;;;;;0.10;0.10;;;;;;;;;;6158377;23;20441;-89
2023/09/02 01:03:29;;;;;;;0.47;0.45;;;;;;;;;;6134168;23;20462;-88
2023/09/02 01:05:55;;;;;;;0.10;0.10;;;;;;;;;;6183105;23;20017;-88
2023/09/02 01:08:21;;;;;;;0.10;0.10;;;;;;;;;;6159406;23;20025;-88
2023/09/02 01:10:47;;;;;;;0.10;0.10;;;;;;;;;;6134441;23;20100;-88
2023/09/02 01:13:13;;;;;;;0.10;0.10;;;;;;;;;;6158736;23;20044;-88
2023/09/02 01:15:39;;;;;;;0.10;0.10;;;;;;;;;;6158764;23;20020;-89
2023/09/02 01:18:05;;;;;;;0.10;0.10;;;;;;;;;;6158901;23;20067;-90
2023/09/02 01:20:47;;;;;;;0.10;0.10;;;;;;;;;;6158841;23;20017;-91
2023/09/02 01:23:23;;;;;;;0.17;0.17;;;;;;;;;;6134054;23;20073;-90
2023/09/02 01:26:07;;;;;;;0.10;0.10;;;;;;;;;;6159028;23;20037;-90
2023/09/02 01:28:33;;;;;;;0.10;0.10;;;;;;;;;;6133941;23;20013;-89
2023/09/02 01:30:59;;;;;;;0.20;0.20;;;;;;;;;;6158531;23;20013;-88
2023/09/02 01:33:26;;;;;;;0.10;0.10;;;;;;;;;;6133838;23;20088;-88
2023/09/02 01:35:52;;;;;;;0.10;0.10;;;;;;;;;;6134335;23;20028;-89
2023/09/02 01:38:20;;;;;;;0.10;0.10;;;;;;;;;;6134074;23;20017;-88
2023/09/02 01:40:46;;;;;;;0.10;0.10;;;;;;;;;;6134331;23;20096;-88
2023/09/02 01:43:12;;;;;;;0.10;0.10;;;;;;;;;;6133861;23;20075;-88
2023/09/02 01:45:38;;;;;;;0.10;0.10;;;;;;;;;;6158238;23;20009;-88
2023/09/02 01:48:06;;;;;;;0.10;0.10;;;;;;;;;;6158403;23;20102;-89
2023/09/02 01:50:33;;;;;;;0.10;0.10;;;;;;;;;;6134112;23;20343;-88
2023/09/02 01:52:59;;;;;;;0.10;0.10;;;;;;;;;;6133614;23;20016;-88
2023/09/02 01:55:25;;;;;;;0.10;0.10;;;;;;;;;;6158756;23;20012;-89
2023/09/02 01:57:51;;;;;;;0.10;0.10;;;;;;;;;;6133957;23;20027;-89
2023/09/02 02:00:17;;;;;;;0.10;0.10;;;;;;;;;;6182920;23;20013;-89
2023/09/02 02:02:43;;;;;;;0.10;0.10;;;;;;;;;;6133485;23;20024;-89
2023/09/02 02:05:13;;;;;;;0.10;0.10;;;;;;;;;;6158229;23;20013;-91
2023/09/02 02:07:41;;;;;;;0.10;0.10;;;;;;;;;;6133989;23;20097;-91
2023/09/02 02:10:07;;;;;;;0.10;0.10;;;;;;;;;;6134534;23;20375;-91
2023/09/02 02:12:33;;;;;;;0.10;0.10;;;;;;;;;;6133406;23;20097;-91
2023/09/02 02:14:59;;;;;;;0.10;0.10;;;;;;;;;;6158317;23;20482;-90
2023/09/02 02:17:25;;;;;;;0.10;0.10;;;;;;;;;;6158802;23;20043;-90
2023/09/02 02:19:51;;;;;;;0.10;0.10;;;;;;;;;;6158286;23;20017;-90
2023/09/02 02:22:17;;;;;;;0.10;0.10;;;;;;;;;;6158239;23;20016;-90
2023/09/02 02:24:43;;;;;;;0.10;0.10;;;;;;;;;;6182689;23;20020;-89
2023/09/02 02:27:09;;;;;;;0.30;0.30;;;;;;;;;;6158230;23;20327;-90
2023/09/02 02:29:35;;;;;;;0.10;0.10;;;;;;;;;;6182828;23;20097;-89
2023/09/02 02:32:01;;;;;;;0.10;0.10;;;;;;;;;;6158239;23;20048;-89
2023/09/02 02:34:27;;;;;;;0.10;0.10;;;;;;;;;;6158525;23;20025;-89
2023/09/02 02:36:53;;;;;;;0.10;0.10;;;;;;;;;;6184767;23;20330;-89
2023/09/02 02:39:19;;;;;;;0.20;0.20;;;;;;;;;;6158272;23;20143;-89
2023/09/02 02:41:45;;;;;;;0.10;0.10;;;;;;;;;;6157941;23;20572;-89
2023/09/02 02:44:11;;;;;;;0.10;0.10;;;;;;;;;;6133498;23;20049;-89
2023/09/02 02:46:37;;;;;;;0.10;0.10;;;;;;;;;;6158048;23;20013;-89
2023/09/02 02:49:03;;;;;;;0.10;0.10;;;;;;;;;;6133454;23;20009;-89
2023/09/02 02:51:29;;;;;;;0.10;0.10;;;;;;;;;;6158173;23;20449;-91
2023/09/02 02:53:55;;;;;;;0.10;0.10;;;;;;;;;;6158807;23;20020;-90
2023/09/02 02:56:21;;;;;;;0.10;0.10;;;;;;;;;;6158348;23;20021;-90
2023/09/02 02:58:47;;;;;;;0.10;0.10;;;;;;;;;;6157921;23;20083;-89
2023/09/02 03:01:13;;;;;;;0.10;0.10;;;;;;;;;;6133498;23;20024;-89
2023/09/02 03:03:40;;;;;;;0.10;0.10;;;;;;;;;;6157889;23;20048;-89
2023/09/02 03:06:06;;;;;;;0.10;0.10;;;;;;;;;;6133564;23;20071;-89
2023/09/02 03:08:32;;;;;;;0.10;0.10;;;;;;;;;;6157730;23;20378;-89
2023/09/02 03:10:59;;;;;;;0.10;0.10;;;;;;;;;;6158116;23;20021;-89
2023/09/02 03:13:25;;;;;;;0.10;0.10;;;;;;;;;;6133475;23;20017;-90
2023/09/02 03:15:51;;;;;;;0.10;0.10;;;;;;;;;;6158107;23;20021;-90
2023/09/02 03:18:17;;;;;;;0.10;0.10;;;;;;;;;;6158268;23;20451;-89
2023/09/02 03:20:44;;;;;;;0.10;0.10;;;;;;;;;;6133767;23;20024;-89
2023/09/02 03:23:10;;;;;;;0.10;0.10;;;;;;;;;;6157966;23;20382;-89
2023/09/02 03:25:37;;;;;;;0.10;0.10;;;;;;;;;;6159591;23;20064;-88
2023/09/02 03:28:04;;;;;;;0.10;0.10;;;;;;;;;;6185875;23;20020;-88
2023/09/02 03:30:29;;;;;;;0.10;0.10;;;;;;;;;;6160345;23;20015;-89
2023/09/02 03:32:55;;;;;;;0.10;0.10;;;;;;;;;;6135338;23;20013;-88
2023/09/02 03:35:21;;;;;;;0.10;0.10;;;;;;;;;;6159952;23;20106;-89
2023/09/02 03:37:47;;;;;;;0.10;0.10;;;;;;;;;;6159676;23;20485;-89
2023/09/02 03:40:13;;;;;;;0.10;0.10;;;;;;;;;;6135397;23;20320;-88
2023/09/02 03:42:39;;;;;;;0.10;0.10;;;;;;;;;;6184198;23;20016;-88
2023/09/02 03:45:05;;;;;;;0.10;0.10;;;;;;;;;;6184085;23;20071;-88
2023/09/02 03:47:32;;;;;;;0.10;0.10;;;;;;;;;;6159639;23;20035;-87
2023/09/02 03:49:59;;;;;;;0.10;0.10;;;;;;;;;;6159713;23;20013;-89
2023/09/02 03:52:25;;;;;;;0.10;0.10;;;;;;;;;;6134758;23;20013;-89
2023/09/02 03:54:51;;;;;;;0.20;0.20;;;;;;;;;;6159243;23;20020;-90
2023/09/02 03:57:17;;;;;;;0.10;0.10;;;;;;;;;;6159753;23;20013;-90
2023/09/02 03:59:42;;;;;;;0.10;0.10;;;;;;;;;;6159467;23;20048;-88
2023/09/02 04:02:09;;;;;;;0.10;0.10;;;;;;;;;;6159336;23;20013;-88
2023/09/02 04:04:35;;;;;;;0.10;0.10;;;;;;;;;;6159213;23;20043;-88
2023/09/02 04:07:01;;;;;;;0.10;0.10;;;;;;;;;;6159492;23;20032;-88
2023/09/02 04:09:28;;;;;;;0.10;0.10;;;;;;;;;;6159768;23;20005;-88
2023/09/02 04:11:54;;;;;;;0.10;0.10;;;;;;;;;;6183906;23;20013;-88
2023/09/02 04:14:20;;;;;;;0.10;0.10;;;;;;;;;;6134687;23;20059;-88
2023/09/02 04:16:46;;;;;;;0.10;0.10;;;;;;;;;;6159323;23;20017;-88
2023/09/02 04:19:12;;;;;;;0.10;0.10;;;;;;;;;;6159283;23;20020;-91
2023/09/02 04:21:38;;;;;;;0.10;0.10;;;;;;;;;;6159486;23;20055;-89
2023/09/02 04:24:04;;;;;;;0.10;0.10;;;;;;;;;;6134842;23;20279;-92
2023/09/02 04:26:30;;;;;;;0.10;0.10;;;;;;;;;;6135587;23;20326;-89
2023/09/02 04:28:56;;;;;;;0.10;0.10;;;;;;;;;;6135161;23;20045;-90
2023/09/02 04:31:22;;;;;;;0.10;0.10;;;;;;;;;;6135166;23;20060;-88
2023/09/02 04:33:48;;;;;;;0.10;0.10;;;;;;;;;;6157641;23;20017;-87
2023/09/02 04:36:14;;;;;;;0.10;0.10;;;;;;;;;;6134153;23;20438;-88
2023/09/02 04:38:40;;;;;;;0.10;0.10;;;;;;;;;;6183588;23;20139;-88
2023/09/02 04:41:06;;;;;;;0.10;0.10;;;;;;;;;;6159434;23;20017;-88
2023/09/02 04:43:32;;;;;;;0.10;0.10;;;;;;;;;;6158978;23;20013;-87
2023/09/02 04:46:02;;;;;;;0.10;0.10;;;;;;;;;;6158974;23;20009;-88
2023/09/02 04:48:28;;;;;;;0.10;0.10;;;;;;;;;;6134573;23;20044;-88
2023/09/02 04:50:54;;;;;;;0.10;0.10;;;;;;;;;;6158704;23;20433;-88
2023/09/02 04:53:20;;;;;;;0.10;0.10;;;;;;;;;;6182776;23;20100;-88
2023/09/02 04:55:47;;;;;;;0.10;0.10;;;;;;;;;;6134197;23;20017;-88
2023/09/02 04:58:13;;;;;;;0.10;0.10;;;;;;;;;;6158179;23;20017;-88
2023/09/02 05:00:39;;;;;;;0.10;0.10;;;;;;;;;;6159000;23;20024;-89
2023/09/02 05:03:05;;;;;;;0.10;0.10;;;;;;;;;;6134001;23;20480;-88
2023/09/02 05:05:34;;;;;;;0.10;0.10;;;;;;;;;;6158221;23;20108;-89
2023/09/02 05:08:00;;;;;;;0.10;0.10;;;;;;;;;;6159117;23;20084;-87
2023/09/02 05:10:26;;;;;;;0.10;0.10;;;;;;;;;;6184827;23;20020;-88
2023/09/02 05:12:52;;;;;;;0.10;0.10;;;;;;;;;;6182544;23;20477;-87
2023/09/02 05:15:18;;;;;;;0.10;0.10;;;;;;;;;;6158934;23;20013;-88
2023/09/02 05:17:44;;;;;;;0.10;0.10;;;;;;;;;;6133838;23;20091;-88
2023/09/02 05:20:10;;;;;;;0.10;0.10;;;;;;;;;;6158586;23;20331;-88
2023/09/02 05:22:36;;;;;;;0.10;0.10;;;;;;;;;;6158368;23;20071;-90
2023/09/02 05:25:03;;;;;;;0.10;0.10;;;;;;;;;;6182874;23;20009;-88
2023/09/02 05:27:29;;;;;;;0.10;0.10;;;;;;;;;;6132995;23;20013;-88
2023/09/02 05:29:55;;;;;;;0.10;0.10;;;;;;;;;;6158592;23;20040;-88
2023/09/02 05:32:21;;;;;;;0.10;0.10;;;;;;;;;;6158941;23;20470;-88
2023/09/02 05:34:47;;;;;;;0.10;0.10;;;;;;;;;;6133574;23;20552;-88
2023/09/02 05:37:13;;;;;;;0.20;0.20;;;;;;;;;;6133893;23;20013;-88
2023/09/02 05:39:39;;;;;;;0.10;0.10;;;;;;;;;;6133856;23;20080;-88
2023/09/02 05:42:05;;;;;;;0.10;0.10;;;;;;;;;;6183334;23;20295;-88
2023/09/02 05:44:32;;;;;;;0.10;0.10;;;;;;;;;;6158611;23;20013;-88
2023/09/02 05:46:58;;;;;;;0.10;0.10;;;;;;;;;;6182727;23;20063;-89
2023/09/02 05:49:24;;;;;;;0.10;0.10;;;;;;;;;;6133612;23;20009;-88
2023/09/02 05:51:50;;;;;;;0.10;0.10;;;;;;;;;;6158520;23;20031;-88
2023/09/02 05:54:16;;;;;;;0.10;0.10;;;;;;;;;;6158194;23;20091;-88
2023/09/02 05:56:42;;;;;;;0.10;0.10;;;;;;;;;;6133666;23;20020;-88
2023/09/02 05:59:08;;;;;;;0.10;0.10;;;;;;;;;;6158375;23;20019;-88
2023/09/02 06:01:33;;;;;;;0.10;0.10;;;;;;;;;;6158851;23;20335;-89
2023/09/02 06:04:00;;;;;;;0.13;0.13;;;;;;;;;;6157941;23;20083;-88
2023/09/02 06:06:25;;;;;;;0.10;0.10;;;;;;;;;;6184198;23;20039;-89
2023/09/02 06:08:53;;;;;;;0.10;0.10;;;;;;;;;;6133358;23;20048;-88
2023/09/02 06:11:19;;;;;;;0.10;0.10;;;;;;;;;;6134042;23;20015;-87
2023/09/02 06:13:45;;;;;;;0.20;0.20;;;;;;;;;;6158142;23;20017;-88
2023/09/02 06:16:11;;;;;;;0.10;0.10;;;;;;;;;;6158085;23;20024;-89
2023/09/02 06:18:37;;;;;;;0.17;0.17;;;;;;;;;;6158269;23;20016;-89
2023/09/02 06:21:13;;;;;;;0.10;0.10;;;;;;;;;;6133682;23;20016;-88
2023/09/02 06:23:43;;;;;;;0.28;0.28;;;;;;;;;;6158350;23;20050;-89
2023/09/02 06:26:09;;;;;;;0.10;0.10;;;;;;;;;;6158501;23;20394;-89
2023/09/02 06:28:35;;;;;;;0.10;0.10;;;;;;;;;;6158316;23;20083;-87
2023/09/02 06:31:05;;;;;;;0.10;0.10;;;;;;;;;;6158324;23;20013;-87
2023/09/02 06:33:31;;;;;;;0.10;0.10;;;;;;;;;;6134359;23;20403;-89
2023/09/02 06:35:57;;;;;;;0.10;0.10;;;;;;;;;;6158324;23;20020;-90
2023/09/02 06:38:23;;;;;;;0.10;0.10;;;;;;;;;;6183099;23;20389;-89
2023/09/02 06:40:49;;;;;;;0.10;0.10;;;;;;;;;;6133823;23;20013;-89
2023/09/02 06:43:16;;;;;;;0.10;0.10;;;;;;;;;;6157957;23;20040;-90
2023/09/02 06:45:42;;;;;;;0.10;0.10;;;;;;;;;;6157581;23;20017;-91
2023/09/02 06:48:08;;;;;;;0.10;0.10;;;;;;;;;;6133558;23;20464;-90
2023/09/02 06:50:34;;;;;;;0.17;0.17;;;;;;;;;;6133585;23;20036;-89
2023/09/02 06:53:00;;;;;;;0.57;0.57;;;;;;;;;;6158018;23;20013;-89
2023/09/02 06:55:27;;;;;;;0.10;0.10;;;;;;;;;;6133418;23;20271;-88
2023/09/02 06:57:53;;;;;;;0.10;0.10;;;;;;;;;;6185236;23;20017;-89
2023/09/02 07:00:19;;;;;;;0.10;0.10;;;;;;;;;;6135406;23;20112;-89
2023/09/02 07:02:45;;;;;;;0.10;0.10;;;;;;;;;;6184494;23;20021;-89
2023/09/02 07:05:11;;;;;;;0.10;0.10;;;;;;;;;;6159808;23;20017;-88
2023/09/02 07:07:38;;;;;;;0.45;0.20;;;;;;;;;;6160356;23;20045;-88
2023/09/02 07:10:04;;;;;;;0.10;0.10;;;;;;;;;;6135049;23;20020;-92
2023/09/02 07:12:30;;;;;;;0.10;0.10;;;;;;;;;;6135661;23;20013;-91
2023/09/02 07:15:02;;;;;;;0.10;0.10;;;;;;;;;;6160782;23;20009;-94
2023/09/02 07:17:28;;;;;;;0.10;0.10;;;;;;;;;;6160245;23;20009;-91
2023/09/02 07:19:55;;;;;;;0.20;0.20;;;;;;;;;;6135183;23;20450;-91
2023/09/02 07:22:21;;;;;;;0.20;0.20;;;;;;;;;;6159977;23;20095;-91
2023/09/02 07:24:47;;;;;;;0.20;0.20;;;;;;;;;;6135153;23;20044;-91
2023/09/02 07:27:13;;;;;;;0.20;0.20;;;;;;;;;;6135077;23;20368;-90
2023/09/02 07:29:39;;;;;;;0.10;0.10;;;;;;;;;;6159696;23;20009;-90
2023/09/02 07:32:05;;;;;;;0.20;0.20;;;;;;;;;;6135436;23;20012;-90
2023/09/02 07:34:37;;;;;;;0.20;0.20;;;;;;;;;;6159439;23;20079;-90
2023/09/02 07:37:03;;;;;;;0.10;0.10;;;;;;;;;;6136400;23;20017;-90
2023/09/02 07:39:29;;;;;;;0.10;0.10;;;;;;;;;;6159513;23;20071;-91
2023/09/02 07:41:55;;;;;;;0.10;0.10;;;;;;;;;;6159872;23;20013;-91
2023/09/02 07:44:21;;;;;;;0.10;0.10;;;;;;;;;;6159404;23;20458;-90
2023/09/02 07:46:47;;;;;;;0.10;0.10;;;;;;;;;;6183991;23;20092;-91
2023/09/02 07:49:13;;;;;;;0.10;0.10;;;;;;;;;;6160644;23;20019;-92
2023/09/02 07:51:38;;;;;;;0.15;0.15;;;;;;;;;;6159655;23;20427;-92
2023/09/02 07:54:04;;;;;;;0.20;0.20;;;;;;;;;;6134982;23;20019;-90
2023/09/02 07:56:30;;;;;;;0.10;0.10;;;;;;;;;;6134657;23;20346;-91
2023/09/02 07:58:56;;;;;;;0.20;0.20;;;;;;;;;;6159567;23;20013;-90
2023/09/02 08:01:22;;;;;;;0.10;0.10;;;;;;;;;;6134636;23;20466;-90
2023/09/02 08:03:49;;;;;;;0.10;0.10;;;;;;;;;;6135063;23;20017;-90
2023/09/02 08:06:15;;;;;;;0.20;0.20;;;;;;;;;;6134578;23;20016;-90
2023/09/02 08:08:41;;;;;;;0.10;0.10;;;;;;;;;;6158590;23;20345;-89
2023/09/02 08:11:07;;;;;;;0.10;0.10;;;;;;;;;;6159266;23;20013;-89
2023/09/02 08:13:33;;;;;;;0.10;0.10;;;;;;;;;;6159210;23;20023;-89
2023/09/02 08:15:59;;;;;;;0.10;0.10;;;;;;;;;;6159263;23;20050;-89
2023/09/02 08:18:25;;;;;;;0.20;0.20;;;;;;;;;;6159115;23;20319;-89
2023/09/02 08:20:51;;;;;;;0.10;0.10;;;;;;;;;;6185618;23;20361;-88
2023/09/02 08:23:17;;;;;;;0.10;0.10;;;;;;;;;;6158963;23;20052;-90
2023/09/02 08:25:43;;;;;;;0.10;0.10;;;;;;;;;;6134573;23;20366;-89
2023/09/02 08:28:09;;;;;;;0.10;0.10;;;;;;;;;;6184179;23;20251;-92
2023/09/02 08:30:35;;;;;;;0.20;0.20;;;;;;;;;;6135703;23;20059;-93
2023/09/02 08:33:01;;;;;;;0.10;0.10;;;;;;;;;;6159236;23;20019;-92
2023/09/02 08:35:27;;;;;;;0.15;0.15;;;;;;;;;;6159052;23;20017;-91
2023/09/02 08:37:53;;;;;;;0.10;0.10;;;;;;;;;;6134740;23;20055;-93
2023/09/02 08:40:19;;;;;;;0.15;0.15;;;;;;;;;;6160729;23;20017;-91
2023/09/02 08:42:45;;;;;;;0.10;0.10;;;;;;;;;;6135172;23;20340;-91
2023/09/02 08:45:14;;;;;;;0.10;0.10;;;;;;;;;;6158857;23;20013;-92
2023/09/02 08:47:42;;;;;;;0.22;0.22;;;;;;;;;;6135291;23;20327;-92
2023/09/02 08:50:08;;;;;;;0.20;0.20;;;;;;;;;;6159231;23;20044;-91
2023/09/02 08:52:35;;;;;;;0.20;0.20;;;;;;;;;;6134106;23;20013;-92
2023/09/02 08:55:01;;;;;;;0.28;0.28;;;;;;;;;;6134010;23;20013;-91
2023/09/02 08:57:27;;;;;;;0.10;0.10;;;;;;;;;;6158992;23;20379;-92
2023/09/02 08:59:53;;;;;;;0.10;0.10;;;;;;;;;;6132545;23;20089;-92
2023/09/02 09:02:19;;;;;;;0.10;0.10;;;;;;;;;;6134297;23;20044;-93
2023/09/02 09:04:48;;;;;;;0.13;0.13;;;;;;;;;;6158938;23;20017;-92
2023/09/02 09:07:14;;;;;;;0.10;0.10;;;;;;;;;;6158659;23;20400;-91
2023/09/02 09:09:40;;;;;;;0.20;0.20;;;;;;;;;;6133802;23;20189;-92
2023/09/02 09:12:07;;;;;;;0.30;0.30;;;;;;;;;;6134705;23;20035;-92
2023/09/02 09:14:36;;;;;;;0.10;0.10;;;;;;;;;;6158623;23;20020;-94
2023/09/02 09:17:02;;;;;;;0.20;0.20;;;;;;;;;;6183260;23;20017;-91
2023/09/02 09:19:28;;;;;;;0.20;0.20;;;;;;;;;;6158788;23;20024;-94
2023/09/02 09:21:55;;;;;;;0.20;0.20;;;;;;;;;;6184301;23;20139;-93
2023/09/02 09:24:21;;;;;;;0.20;0.20;;;;;;;;;;6133928;23;20056;-92
2023/09/02 09:26:47;;;;;;;0.10;0.10;;;;;;;;;;6134462;23;20032;-92
2023/09/02 09:29:13;;;;;;;0.20;0.20;;;;;;;;;;6133980;23;20446;-93
2023/09/02 09:31:39;;;;;;;0.20;0.20;;;;;;;;;;6158488;23;20012;-93
2023/09/02 09:34:06;;;;;;;0.20;0.20;;;;;;;;;;6158310;23;20013;-92
2023/09/02 09:36:32;;;;;;;0.30;0.30;;;;;;;;;;6134227;23;20016;-92
2023/09/02 09:38:59;;;;;;;0.20;0.20;;;;;;;;;;6158542;23;20013;-91
2023/09/02 09:41:25;;;;;;;0.20;0.20;;;;;;;;;;6134164;23;20016;-91
2023/09/02 09:44:06;;;;;;;0.20;0.20;;;;;;;;;;6134030;23;20017;-89
2023/09/02 09:46:33;;;;;;;0.20;0.20;;;;;;;;;;6183196;23;20009;-88
2023/09/02 09:49:01;;;;;;;0.20;0.20;;;;;;;;;;6158356;23;20024;-91
2023/09/02 09:51:27;;;;;;;0.20;0.20;;;;;;;;;;6156911;23;20013;-87
2023/09/02 09:54:00;;;;;;;0.13;0.13;;;;;;;;;;5109937;27;20384;-86
2023/09/02 09:56:26;;;;;;;3.83;0.60;;;;;;;;;;5091935;28;20200;-88
2023/09/02 09:58:52;;;;;;;0.20;0.20;;;;;;;;;;5075147;28;20370;-90
2023/09/02 10:01:24;;;;;;;0.10;0.10;;;;;;;;;;5091952;28;20589;-90
2023/09/02 10:03:51;;;;;;;0.13;0.13;;;;;;;;;;5091863;28;20537;-89
2023/09/02 10:06:18;;;;;;;0.20;0.20;;;;;;;;;;5075021;28;20043;-90
2023/09/02 10:08:50;;;;;;;0.10;0.10;;;;;;;;;;5091653;28;20035;-89
2023/09/02 10:11:43;;;;;;;0.10;0.10;;;;;;;;;;5091772;28;20108;-91
2023/09/02 10:14:09;;;;;;;0.10;0.10;;;;;;;;;;5108310;28;20043;-90
2023/09/02 10:16:35;;;;;;;0.10;0.10;;;;;;;;;;5093601;28;20044;-90
2023/09/02 10:19:04;;;;;;;0.10;0.10;;;;;;;;;;5108646;28;20039;-90
2023/09/02 10:21:30;;;;;;;0.20;0.20;;;;;;;;;;5091521;28;20101;-92
2023/09/02 10:23:56;;;;;;;0.20;0.20;;;;;;;;;;5091316;28;20036;-91
2023/09/02 10:26:28;;;;;;;0.15;0.15;;;;;;;;;;5091226;28;20051;-90
2023/09/02 10:28:55;;;;;;;0.20;0.20;;;;;;;;;;5074261;28;20039;-90
2023/09/02 10:31:22;;;;;;;0.20;0.20;;;;;;;;;;5074681;28;20391;-91
2023/09/02 10:33:54;;;;;;;0.20;0.20;;;;;;;;;;5108250;28;20104;-90
2023/09/02 10:36:21;;;;;;;0.20;0.20;;;;;;;;;;5109567;28;20062;-90
2023/09/02 10:38:48;;;;;;;0.20;0.20;;;;;;;;;;5074575;28;20519;-90
2023/09/02 10:41:15;;;;;;;0.20;0.20;;;;;;;;;;5091460;28;20047;-92
2023/09/02 10:43:41;;;;;;;0.20;0.20;;;;;;;;;;5108211;28;20467;-90
2023/09/02 10:46:10;;;;;;;0.20;0.20;;;;;;;;;;5107937;28;20028;-88
2023/09/02 10:48:40;;;;;;;0.40;0.40;;;;;;;;;;5074201;28;20039;-87
2023/09/02 10:51:07;;;;;;;0.20;0.20;;;;;;;;;;5091402;28;20044;-93
2023/09/02 10:53:48;;;;;;;0.20;0.20;;;;;;;;;;5090634;28;20051;-91
2023/09/02 10:56:24;;;;;;;0.20;0.20;;;;;;;;;;5107416;28;20097;-91
2023/09/02 10:58:50;;;;;;;0.20;0.20;;;;;;;;;;5091024;28;20059;-91
2023/09/02 11:01:16;;;;;;;0.20;0.20;;;;;;;;;;5107490;28;20078;-90
2023/09/02 11:03:49;;;;;;;0.20;0.20;;;;;;;;;;5086409;28;20044;-91
2023/09/02 11:06:15;;;;;;;0.20;0.20;;;;;;;;;;5060501;28;20109;-94
2023/09/02 11:08:48;;;;;;;0.20;0.20;;;;;;;;;;5084574;28;20040;-89
2023/09/02 11:11:15;;;;;;;0.20;0.20;;;;;;;;;;5071460;28;20384;-89
2023/09/02 11:13:59;;;;;;;0.22;0.22;;;;;;;;;;5073394;28;20040;-92
2023/09/02 11:16:25;;;;;;;0.20;0.20;;;;;;;;;;5057754;28;20044;-96
2023/09/02 11:18:58;;;;;;;0.20;0.20;;;;;;;;;;5059014;28;20510;-96
2023/09/02 11:21:41;;;;;;;0.20;0.20;;;;;;;;;;5041469;28;20380;-93
2023/09/02 11:24:16;;;;;;;0.10;0.10;;;;;;;;;;5074075;28;20090;-95
2023/09/02 11:26:51;;;;;;;0.20;0.20;;;;;;;;;;5082639;28;20028;-94
2023/09/02 11:29:24;;;;;;;0.20;0.20;;;;;;;;;;5048788;28;20048;-96
2023/09/02 11:31:56;;;;;;;0.10;0.10;;;;;;;;;;5059116;28;20544;-95
2023/09/02 11:34:23;;;;;;;0.20;0.20;;;;;;;;;;5074223;28;20525;-95
2023/09/02 11:36:58;;;;;;;0.10;0.10;;;;;;;;;;5063267;28;20036;-94
2023/09/02 11:39:25;;;;;;;0.20;0.20;;;;;;;;;;5041737;28;20045;-92
2023/09/02 11:42:05;;;;;;;0.10;0.10;;;;;;;;;;5060165;28;20043;-94
2023/09/02 11:44:37;;;;;;;0.10;0.10;;;;;;;;;;5075119;28;20510;-90
2023/09/02 11:47:04;;;;;;;0.20;0.20;;;;;;;;;;5038922;28;20053;-90
2023/09/02 11:49:29;;;;;;;0.10;0.10;;;;;;;;;;5072348;28;20048;-91
2023/09/02 11:51:56;;;;;;;0.20;0.20;;;;;;;;;;5039301;28;20070;-90
2023/09/02 11:54:24;;;;;;;0.20;0.20;;;;;;;;;;5057645;28;20044;-93
2023/09/02 11:56:57;;;;;;;0.10;0.10;;;;;;;;;;5056977;28;20036;-91
2023/09/02 11:59:24;;;;;;;0.20;0.20;;;;;;;;;;5056469;28;20040;-93
2023/09/02 12:02:08;;;;;;;0.20;0.20;;;;;;;;;;5057236;28;20048;-94
2023/09/02 12:04:40;;;;;;;0.20;0.20;;;;;;;;;;5056473;28;20479;-93
2023/09/02 12:07:11;;;;;;;0.20;0.20;;;;;;;;;;5057193;28;20487;-94
2023/09/02 12:09:40;;;;;;;0.20;0.20;;;;;;;;;;5041039;28;20047;-94
2023/09/02 12:12:06;;;;;;;0.20;0.20;;;;;;;;;;5056618;28;20076;-95
2023/09/02 12:14:32;;;;;;;0.20;0.20;;;;;;;;;;5055707;28;20045;-91
2023/09/02 12:17:01;;;;;;;0.20;0.20;;;;;;;;;;5038038;28;20036;-87
2023/09/02 12:19:41;;;;;;;0.10;0.10;;;;;;;;;;5072954;28;20036;-94
2023/09/02 12:22:07;;;;;;;0.20;0.20;;;;;;;;;;5069598;28;20048;-93
2023/09/02 12:24:35;;;;;;;0.15;0.15;;;;;;;;;;5056921;28;20131;-92
2023/09/02 12:27:01;;;;;;;0.20;0.20;;;;;;;;;;5039841;28;20072;-92
2023/09/02 12:29:27;;;;;;;0.17;0.17;;;;;;;;;;5055757;28;20040;-92
2023/09/02 12:31:58;;;;;;;0.20;0.20;;;;;;;;;;5039053;28;20079;-93
2023/09/02 12:34:24;;;;;;;0.20;0.20;;;;;;;;;;5072326;28;20125;-92
2023/09/02 12:36:50;;;;;;;0.25;0.25;;;;;;;;;;5039454;28;20041;-93
2023/09/02 12:39:25;;;;;;;0.10;0.10;;;;;;;;;;5039381;28;20043;-93
2023/09/02 12:41:53;;;;;;;0.20;0.20;;;;;;;;;;5055666;28;20365;-92
2023/09/02 12:44:19;;;;;;;0.20;0.20;;;;;;;;;;5039190;28;20040;-92
2023/09/02 12:46:47;;;;;;;0.10;0.10;;;;;;;;;;5072250;28;20036;-92
2023/09/02 12:49:15;;;;;;;0.10;0.10;;;;;;;;;;5039081;28;20129;-92
2023/09/02 12:51:41;;;;;;;0.10;0.10;;;;;;;;;;5038439;28;20094;-93
2023/09/02 12:54:10;;;;;;;0.20;0.20;;;;;;;;;;5039438;28;20048;-92
2023/09/02 12:56:37;;;;;;;0.20;0.20;;;;;;;;;;5055044;28;20048;-92
2023/09/02 12:59:03;;;;;;;0.20;0.20;;;;;;;;;;5038377;28;20040;-93
2023/09/02 13:01:29;;;;;;;0.20;0.20;;;;;;;;;;5038586;28;20075;-92
2023/09/02 13:03:55;;;;;;;0.10;0.10;;;;;;;;;;5071811;28;20520;-92
2023/09/02 13:06:24;;;;;;;0.20;0.20;;;;;;;;;;5038405;28;20049;-92
2023/09/02 13:08:50;;;;;;;0.20;0.20;;;;;;;;;;5055014;28;20082;-93
2023/09/02 13:11:16;;;;;;;0.20;0.20;;;;;;;;;;5038379;28;20546;-93
2023/09/02 13:13:42;;;;;;;0.20;0.20;;;;;;;;;;5038374;28;20523;-92
2023/09/02 13:16:10;;;;;;;0.30;0.30;;;;;;;;;;5055592;28;20053;-93
2023/09/02 13:18:37;;;;;;;0.10;0.10;;;;;;;;;;5038972;28;20373;-93
2023/09/02 13:21:04;;;;;;;0.20;0.20;;;;;;;;;;5054938;28;20033;-92
2023/09/02 13:23:33;;;;;;;0.10;0.10;;;;;;;;;;5038690;28;20391;-92
2023/09/02 13:26:07;;;;;;;0.20;0.20;;;;;;;;;;5039050;28;20044;-92
2023/09/02 13:28:36;;;;;;;0.10;0.10;;;;;;;;;;5072040;28;20468;-92
2023/09/02 13:31:02;;;;;;;0.28;0.28;;;;;;;;;;5039009;28;20091;-92
2023/09/02 13:33:28;;;;;;;0.20;0.20;;;;;;;;;;5055299;28;20399;-92
2023/09/02 13:35:57;;;;;;;0.20;0.20;;;;;;;;;;5055039;28;20463;-92
2023/09/02 13:38:23;;;;;;;0.10;0.10;;;;;;;;;;5055451;28;20092;-92
2023/09/02 13:40:51;;;;;;;0.30;0.20;;;;;;;;;;5071949;28;20075;-92
2023/09/02 13:43:20;;;;;;;0.30;0.28;;;;;;;;;;5055388;28;20187;-93
2023/09/02 13:45:47;;;;;;;0.20;0.20;;;;;;;;;;5038324;28;20075;-93
2023/09/02 13:48:13;;;;;;;0.10;0.10;;;;;;;;;;5038283;28;20041;-93
2023/09/02 13:50:39;;;;;;;0.25;0.25;;;;;;;;;;5054917;28;20097;-93
2023/09/02 13:53:05;;;;;;;0.20;0.20;;;;;;;;;;5055013;28;20099;-92
2023/09/02 13:55:34;;;;;;;0.20;0.20;;;;;;;;;;5055055;28;20055;-92
2023/09/02 13:58:00;;;;;;;0.10;0.10;;;;;;;;;;5055156;28;20491;-91
2023/09/02 14:00:27;;;;;;;0.20;0.20;;;;;;;;;;5038227;28;20040;-92
2023/09/02 14:02:54;;;;;;;0.20;0.20;;;;;;;;;;5071377;28;20124;-93
2023/09/02 14:05:21;;;;;;;0.20;0.20;;;;;;;;;;5038183;28;20074;-93
2023/09/02 14:07:48;;;;;;;0.10;0.10;;;;;;;;;;5054745;28;20123;-93
2023/09/02 14:10:14;;;;;;;0.10;0.10;;;;;;;;;;5038172;28;20539;-92
2023/09/02 14:12:40;;;;;;;0.20;0.20;;;;;;;;;;5038277;28;20389;-93
2023/09/02 14:15:06;;;;;;;0.20;0.20;;;;;;;;;;5037921;28;20149;-93
2023/09/02 14:17:32;;;;;;;0.10;0.10;;;;;;;;;;5038119;28;20040;-92
2023/09/02 14:19:58;;;;;;;0.10;0.10;;;;;;;;;;5054993;28;20046;-92
2023/09/02 14:22:24;;;;;;;0.20;0.20;;;;;;;;;;5038147;28;20123;-92
2023/09/02 14:24:50;;;;;;;0.30;0.30;;;;;;;;;;5037795;28;20093;-92
2023/09/02 14:27:17;;;;;;;0.20;0.20;;;;;;;;;;5054636;28;20036;-92
2023/09/02 14:29:43;;;;;;;0.20;0.20;;;;;;;;;;5037915;28;20036;-93
2023/09/02 14:32:09;;;;;;;0.20;0.20;;;;;;;;;;5037584;28;20102;-93
2023/09/02 14:34:36;;;;;;;0.10;0.10;;;;;;;;;;5037748;28;20049;-92
2023/09/02 14:37:03;;;;;;;0.10;0.10;;;;;;;;;;5038067;28;20051;-92
2023/09/02 14:39:32;;;;;;;0.20;0.20;;;;;;;;;;5056072;28;20040;-92
2023/09/02 14:41:58;;;;;;;0.13;0.13;;;;;;;;;;5058328;28;20032;-93